LHA2584 BKPR-LOWW
Flight info
| Callsign | LHA2584 |
|---|---|
| Flight time | 1h 25m |
| Altitude | 35000 |
| Route | SARAX T217 TETOV/N0454F360 DCT MAVAR DCT RETRA DCT GACMO DCT OBUTI |
| Aircraft | B738/M-SDE1E2FGIJ1RWYZ/S |
Departure
| Time | 2026-04-20 14:17 |
|---|---|
| Airport | Priština Adem Jashari International Airport (BKPR) |
Arrival
| Time | 2026-04-20 15:43 |
|---|---|
| Airport | Vienna International Airport (LOWW) |
| Time | Latitude | Longitude | Altitude | Speed | Heading |
|---|---|---|---|---|---|
| 2026-04-20 13:50 | 42.58516 | 21.03084 | 1797 ft | 0 kts | 300° |
| 2026-04-20 14:08 | 42.58516 | 21.03082 | 1797 ft | 1 kts | 298° |
| 2026-04-20 14:08 | 42.58517 | 21.03066 | 1794 ft | 2 kts | 261° |
| 2026-04-20 14:08 | 42.58501 | 21.03069 | 1797 ft | 4 kts | 136° |
| 2026-04-20 14:08 | 42.58493 | 21.03108 | 1794 ft | 5 kts | 111° |
| 2026-04-20 14:09 | 42.58465 | 21.03140 | 1794 ft | 6 kts | 154° |
| 2026-04-20 14:09 | 42.58424 | 21.03165 | 1797 ft | 7 kts | 149° |
| 2026-04-20 14:09 | 42.58385 | 21.03215 | 1797 ft | 8 kts | 143° |
| 2026-04-20 14:09 | 42.58327 | 21.03236 | 1797 ft | 9 kts | 174° |
| 2026-04-20 14:10 | 42.58259 | 21.03244 | 1795 ft | 10 kts | 176° |
| 2026-04-20 14:10 | 42.58184 | 21.03251 | 1794 ft | 11 kts | 176° |
| 2026-04-20 14:10 | 42.58102 | 21.03259 | 1798 ft | 12 kts | 175° |
| 2026-04-20 14:10 | 42.58013 | 21.03269 | 1794 ft | 13 kts | 175° |
| 2026-04-20 14:11 | 42.57919 | 21.03280 | 1797 ft | 14 kts | 175° |
| 2026-04-20 14:11 | 42.57822 | 21.03288 | 1797 ft | 14 kts | 176° |
| 2026-04-20 14:11 | 42.57726 | 21.03298 | 1797 ft | 14 kts | 176° |
| 2026-04-20 14:11 | 42.57626 | 21.03308 | 1799 ft | 15 kts | 176° |
| 2026-04-20 14:12 | 42.57521 | 21.03319 | 1796 ft | 16 kts | 175° |
| 2026-04-20 14:12 | 42.57411 | 21.03331 | 1798 ft | 16 kts | 175° |
| 2026-04-20 14:12 | 42.57304 | 21.03343 | 1796 ft | 15 kts | 175° |
| 2026-04-20 14:12 | 42.57201 | 21.03354 | 1798 ft | 15 kts | 176° |
| 2026-04-20 14:13 | 42.57102 | 21.03361 | 1797 ft | 14 kts | 177° |
| 2026-04-20 14:13 | 42.57009 | 21.03371 | 1798 ft | 13 kts | 175° |
| 2026-04-20 14:13 | 42.56919 | 21.03381 | 1800 ft | 13 kts | 175° |
| 2026-04-20 14:13 | 42.56823 | 21.03390 | 1800 ft | 15 kts | 176° |
| 2026-04-20 14:14 | 42.56716 | 21.03401 | 1797 ft | 16 kts | 176° |
| 2026-04-20 14:14 | 42.56599 | 21.03412 | 1800 ft | 18 kts | 176° |
| 2026-04-20 14:14 | 42.56474 | 21.03424 | 1801 ft | 18 kts | 175° |
| 2026-04-20 14:14 | 42.56350 | 21.03437 | 1801 ft | 18 kts | 175° |
| 2026-04-20 14:15 | 42.56253 | 21.03446 | 1800 ft | 12 kts | 178° |
| 2026-04-20 14:15 | 42.56182 | 21.03478 | 1800 ft | 11 kts | 121° |
| 2026-04-20 14:15 | 42.56224 | 21.03555 | 1798 ft | 11 kts | 34° |
| 2026-04-20 14:15 | 42.56288 | 21.03611 | 1798 ft | 11 kts | 37° |
| 2026-04-20 14:16 | 42.56342 | 21.03677 | 1798 ft | 11 kts | 20° |
| 2026-04-20 14:16 | 42.56431 | 21.03673 | 1799 ft | 25 kts | 355° |
| 2026-04-20 14:16 | 42.56760 | 21.03637 | 1797 ft | 68 kts | 355° |
| 2026-04-20 14:16 | 42.57460 | 21.03567 | 1798 ft | 136 kts | 356° |
| 2026-04-20 14:17 | 42.58497 | 21.03429 | 1856 ft | 188 kts | 353° |
| 2026-04-20 14:17 | 42.59860 | 21.03346 | 2438 ft | 207 kts | 356° |
| 2026-04-20 14:17 | 42.61327 | 21.03306 | 3211 ft | 214 kts | 354° |
| 2026-04-20 14:17 | 42.62787 | 21.02994 | 3900 ft | 212 kts | 335° |
| 2026-04-20 14:18 | 42.63998 | 21.01924 | 4548 ft | 207 kts | 314° |
| 2026-04-20 14:18 | 42.64818 | 21.00355 | 5177 ft | 204 kts | 293° |
| 2026-04-20 14:18 | 42.65129 | 20.98758 | 5734 ft | 203 kts | 274° |
| 2026-04-20 14:18 | 42.64956 | 20.96874 | 6364 ft | 203 kts | 249° |
| 2026-04-20 14:19 | 42.64223 | 20.95244 | 6994 ft | 203 kts | 230° |
| 2026-04-20 14:19 | 42.63140 | 20.94057 | 7615 ft | 204 kts | 209° |
| 2026-04-20 14:19 | 42.61797 | 20.93453 | 8266 ft | 203 kts | 198° |
| 2026-04-20 14:19 | 42.60394 | 20.92936 | 8616 ft | 220 kts | 198° |
| 2026-04-20 14:20 | 42.58857 | 20.92368 | 8853 ft | 239 kts | 197° |
| 2026-04-20 14:20 | 42.57182 | 20.91757 | 9079 ft | 259 kts | 197° |
| 2026-04-20 14:20 | 42.55377 | 20.91098 | 9289 ft | 278 kts | 197° |
| 2026-04-20 14:20 | 42.53538 | 20.90246 | 9410 ft | 280 kts | 212° |
| 2026-04-20 14:21 | 42.52093 | 20.88534 | 9607 ft | 277 kts | 235° |
| 2026-04-20 14:21 | 42.51226 | 20.86266 | 9812 ft | 276 kts | 253° |
| 2026-04-20 14:21 | 42.50677 | 20.83771 | 10026 ft | 277 kts | 255° |
| 2026-04-20 14:21 | 42.50134 | 20.81255 | 10218 ft | 279 kts | 255° |
| 2026-04-20 14:22 | 42.49580 | 20.78736 | 10399 ft | 279 kts | 255° |
| 2026-04-20 14:22 | 42.48954 | 20.76192 | 10617 ft | 295 kts | 249° |
| 2026-04-20 14:22 | 42.47805 | 20.73763 | 10826 ft | 321 kts | 228° |
| 2026-04-20 14:22 | 42.45937 | 20.71933 | 11035 ft | 347 kts | 205° |
| 2026-04-20 14:23 | 42.43553 | 20.71307 | 11219 ft | 362 kts | 179° |
| 2026-04-20 14:23 | 42.41097 | 20.72174 | 11430 ft | 372 kts | 156° |
| 2026-04-20 14:23 | 42.38954 | 20.74181 | 11605 ft | 379 kts | 138° |
| 2026-04-20 14:23 | 42.37134 | 20.76813 | 11837 ft | 391 kts | 132° |
| 2026-04-20 14:24 | 42.35370 | 20.79674 | 12303 ft | 400 kts | 130° |
| 2026-04-20 14:24 | 42.33638 | 20.82669 | 12808 ft | 409 kts | 127° |
| 2026-04-20 14:24 | 42.32050 | 20.85902 | 13313 ft | 415 kts | 121° |
| 2026-04-20 14:24 | 42.30707 | 20.89383 | 13809 ft | 421 kts | 116° |
| 2026-04-20 14:25 | 42.29174 | 20.92686 | 14271 ft | 422 kts | 134° |
| 2026-04-20 14:25 | 42.26836 | 20.95016 | 14794 ft | 419 kts | 158° |
| 2026-04-20 14:25 | 42.24040 | 20.95940 | 15280 ft | 413 kts | 181° |
| 2026-04-20 14:25 | 42.21250 | 20.95320 | 15779 ft | 406 kts | 205° |
| 2026-04-20 14:26 | 42.18823 | 20.93444 | 16319 ft | 402 kts | 215° |
| 2026-04-20 14:26 | 42.16305 | 20.91725 | 16806 ft | 411 kts | 203° |
| 2026-04-20 14:26 | 42.13547 | 20.90589 | 17326 ft | 418 kts | 197° |
| 2026-04-20 14:26 | 42.10684 | 20.89826 | 17798 ft | 427 kts | 186° |
| 2026-04-20 14:27 | 42.07757 | 20.90328 | 18240 ft | 437 kts | 163° |
| 2026-04-20 14:27 | 42.05044 | 20.92203 | 18815 ft | 440 kts | 149° |
| 2026-04-20 14:27 | 42.02399 | 20.94291 | 19291 ft | 442 kts | 159° |
| 2026-04-20 14:27 | 41.99446 | 20.95262 | 19773 ft | 436 kts | 181° |
| 2026-04-20 14:28 | 41.96479 | 20.94718 | 20277 ft | 430 kts | 202° |
| 2026-04-20 14:28 | 41.93850 | 20.92896 | 20801 ft | 424 kts | 218° |
| 2026-04-20 14:28 | 41.91690 | 20.90243 | 21305 ft | 420 kts | 231° |
| 2026-04-20 14:28 | 41.89790 | 20.87338 | 21801 ft | 420 kts | 232° |
| 2026-04-20 14:29 | 41.87873 | 20.84368 | 22296 ft | 421 kts | 232° |
| 2026-04-20 14:29 | 41.85948 | 20.81401 | 22788 ft | 422 kts | 231° |
| 2026-04-20 14:29 | 41.84010 | 20.78444 | 23285 ft | 422 kts | 231° |
| 2026-04-20 14:29 | 41.82059 | 20.75498 | 23779 ft | 422 kts | 231° |
| 2026-04-20 14:30 | 41.80105 | 20.72565 | 24271 ft | 421 kts | 231° |
| 2026-04-20 14:30 | 41.78152 | 20.69643 | 24784 ft | 421 kts | 231° |
| 2026-04-20 14:30 | 41.76200 | 20.66726 | 25274 ft | 420 kts | 231° |
| 2026-04-20 14:30 | 41.74275 | 20.63852 | 25757 ft | 420 kts | 231° |
| 2026-04-20 14:31 | 41.72327 | 20.60946 | 26251 ft | 419 kts | 232° |
| 2026-04-20 14:31 | 41.70597 | 20.57858 | 26716 ft | 412 kts | 246° |
| 2026-04-20 14:31 | 41.69672 | 20.54299 | 27231 ft | 403 kts | 263° |
| 2026-04-20 14:31 | 41.69550 | 20.50591 | 27705 ft | 397 kts | 277° |
| 2026-04-20 14:32 | 41.70083 | 20.46987 | 28145 ft | 394 kts | 290° |
| 2026-04-20 14:32 | 41.71276 | 20.43708 | 28606 ft | 392 kts | 301° |
| 2026-04-20 14:32 | 41.72711 | 20.40617 | 29056 ft | 391 kts | 303° |
| 2026-04-20 14:32 | 41.74169 | 20.37614 | 29500 ft | 389 kts | 303° |
| 2026-04-20 14:33 | 41.75651 | 20.34584 | 29937 ft | 388 kts | 303° |
| 2026-04-20 14:33 | 41.77121 | 20.31562 | 30388 ft | 386 kts | 303° |
| 2026-04-20 14:33 | 41.78573 | 20.28548 | 30822 ft | 384 kts | 303° |
| 2026-04-20 14:33 | 41.80010 | 20.25541 | 31226 ft | 382 kts | 303° |
| 2026-04-20 14:34 | 41.81436 | 20.22537 | 31605 ft | 381 kts | 303° |
| 2026-04-20 14:34 | 41.82853 | 20.19543 | 31967 ft | 380 kts | 303° |
| 2026-04-20 14:34 | 41.84245 | 20.16589 | 32328 ft | 379 kts | 303° |
| 2026-04-20 14:34 | 41.85647 | 20.13611 | 32683 ft | 378 kts | 303° |
| 2026-04-20 14:35 | 41.87050 | 20.10627 | 33008 ft | 377 kts | 303° |
| 2026-04-20 14:35 | 41.88448 | 20.07651 | 33330 ft | 377 kts | 303° |
| 2026-04-20 14:35 | 41.89846 | 20.04672 | 33646 ft | 376 kts | 303° |
| 2026-04-20 14:35 | 41.91237 | 20.01704 | 33970 ft | 375 kts | 303° |
| 2026-04-20 14:36 | 41.92622 | 19.98746 | 34289 ft | 374 kts | 303° |
| 2026-04-20 14:36 | 41.94003 | 19.95794 | 34600 ft | 372 kts | 303° |
| 2026-04-20 14:36 | 41.95356 | 19.92898 | 34917 ft | 370 kts | 303° |
| 2026-04-20 14:36 | 41.96730 | 19.89962 | 35006 ft | 374 kts | 303° |
| 2026-04-20 14:37 | 41.99527 | 19.83966 | 35017 ft | 384 kts | 303° |
| 2026-04-20 14:37 | 42.02396 | 19.77799 | 35022 ft | 394 kts | 303° |
| 2026-04-20 14:38 | 42.05307 | 19.71525 | 35031 ft | 402 kts | 303° |
| 2026-04-20 14:38 | 42.08303 | 19.65060 | 35021 ft | 411 kts | 303° |
| 2026-04-20 14:39 | 42.11359 | 19.58452 | 35018 ft | 420 kts | 302° |
| 2026-04-20 14:39 | 42.14448 | 19.51757 | 35014 ft | 422 kts | 302° |
| 2026-04-20 14:40 | 42.17544 | 19.45033 | 35016 ft | 422 kts | 302° |
| 2026-04-20 14:40 | 42.20617 | 19.38357 | 35014 ft | 421 kts | 304° |
| 2026-04-20 14:41 | 42.24480 | 19.32465 | 35017 ft | 420 kts | 318° |
| 2026-04-20 14:41 | 42.29276 | 19.27976 | 35023 ft | 420 kts | 327° |
| 2026-04-20 14:42 | 42.34223 | 19.23900 | 35021 ft | 419 kts | 327° |
| 2026-04-20 14:42 | 42.39188 | 19.19787 | 35020 ft | 418 kts | 326° |
| 2026-04-20 14:43 | 42.44135 | 19.15644 | 35012 ft | 417 kts | 326° |
| 2026-04-20 14:43 | 42.49061 | 19.11495 | 35021 ft | 417 kts | 326° |
| 2026-04-20 14:44 | 42.53942 | 19.07376 | 35014 ft | 416 kts | 326° |
| 2026-04-20 14:44 | 42.58848 | 19.03226 | 35013 ft | 415 kts | 326° |
| 2026-04-20 14:45 | 42.63753 | 18.99071 | 35012 ft | 416 kts | 326° |
| 2026-04-20 14:45 | 42.68659 | 18.94908 | 35001 ft | 416 kts | 326° |
| 2026-04-20 14:46 | 42.73529 | 18.90766 | 35006 ft | 415 kts | 326° |
| 2026-04-20 14:46 | 42.78378 | 18.86636 | 35004 ft | 416 kts | 326° |
| 2026-04-20 14:47 | 42.83281 | 18.82451 | 35003 ft | 416 kts | 326° |
| 2026-04-20 14:48 | 42.90596 | 18.76193 | 34996 ft | 416 kts | 326° |
| 2026-04-20 14:48 | 42.95492 | 18.71994 | 34985 ft | 416 kts | 326° |
| 2026-04-20 14:49 | 43.00384 | 18.67790 | 34978 ft | 415 kts | 326° |
| 2026-04-20 14:49 | 43.05266 | 18.63586 | 34979 ft | 415 kts | 326° |
| 2026-04-20 14:50 | 43.10111 | 18.59409 | 34981 ft | 414 kts | 326° |
| 2026-04-20 14:50 | 43.15017 | 18.55266 | 34970 ft | 415 kts | 330° |
| 2026-04-20 14:51 | 43.20209 | 18.51781 | 34971 ft | 416 kts | 331° |
| 2026-04-20 14:51 | 43.25391 | 18.48384 | 34965 ft | 415 kts | 331° |
| 2026-04-20 14:52 | 43.30590 | 18.44950 | 34960 ft | 415 kts | 331° |
| 2026-04-20 14:52 | 43.35780 | 18.41493 | 34945 ft | 414 kts | 331° |
| 2026-04-20 14:53 | 43.40964 | 18.38028 | 34930 ft | 414 kts | 331° |
| 2026-04-20 14:53 | 43.46101 | 18.34582 | 34931 ft | 413 kts | 331° |
| 2026-04-20 14:54 | 43.51263 | 18.31115 | 34940 ft | 412 kts | 330° |
| 2026-04-20 14:54 | 43.56406 | 18.27655 | 34931 ft | 410 kts | 330° |
| 2026-04-20 14:55 | 43.61524 | 18.24204 | 34926 ft | 409 kts | 330° |
| 2026-04-20 14:55 | 43.66636 | 18.20750 | 34917 ft | 409 kts | 330° |
| 2026-04-20 14:56 | 43.71703 | 18.17321 | 34929 ft | 408 kts | 330° |
| 2026-04-20 14:56 | 43.76802 | 18.13863 | 34920 ft | 408 kts | 330° |
| 2026-04-20 14:57 | 43.81899 | 18.10400 | 34924 ft | 408 kts | 330° |
| 2026-04-20 14:57 | 43.86994 | 18.06932 | 34911 ft | 408 kts | 330° |
| 2026-04-20 14:58 | 43.92049 | 18.03485 | 34918 ft | 407 kts | 330° |
| 2026-04-20 14:58 | 43.97129 | 18.00012 | 34924 ft | 407 kts | 330° |
| 2026-04-20 14:59 | 44.02202 | 17.96538 | 34930 ft | 406 kts | 330° |
| 2026-04-20 14:59 | 44.07273 | 17.93064 | 34940 ft | 406 kts | 330° |
| 2026-04-20 15:00 | 44.12312 | 17.89600 | 34946 ft | 406 kts | 330° |
| 2026-04-20 15:00 | 44.17381 | 17.86110 | 34956 ft | 406 kts | 330° |
| 2026-04-20 15:01 | 44.22450 | 17.82613 | 34955 ft | 406 kts | 330° |
| 2026-04-20 15:01 | 44.27520 | 17.79107 | 34964 ft | 407 kts | 330° |
| 2026-04-20 15:02 | 44.32558 | 17.75618 | 34950 ft | 407 kts | 330° |
| 2026-04-20 15:02 | 44.37638 | 17.72095 | 34973 ft | 408 kts | 330° |
| 2026-04-20 15:03 | 44.42730 | 17.68556 | 34970 ft | 409 kts | 330° |
| 2026-04-20 15:03 | 44.47825 | 17.65008 | 34985 ft | 409 kts | 330° |
| 2026-04-20 15:04 | 44.52922 | 17.61446 | 35003 ft | 410 kts | 329° |
| 2026-04-20 15:04 | 44.58000 | 17.57891 | 34994 ft | 411 kts | 329° |
| 2026-04-20 15:05 | 44.63115 | 17.54308 | 35002 ft | 411 kts | 329° |
| 2026-04-20 15:05 | 44.68227 | 17.50719 | 35009 ft | 411 kts | 329° |
| 2026-04-20 15:06 | 44.73332 | 17.47129 | 35008 ft | 410 kts | 329° |
| 2026-04-20 15:06 | 44.78396 | 17.43559 | 35018 ft | 409 kts | 329° |
| 2026-04-20 15:07 | 44.83487 | 17.39960 | 35015 ft | 409 kts | 329° |
| 2026-04-20 15:07 | 44.88573 | 17.36362 | 35019 ft | 409 kts | 329° |
| 2026-04-20 15:08 | 44.93652 | 17.32762 | 35016 ft | 408 kts | 329° |
| 2026-04-20 15:08 | 44.98692 | 17.29183 | 35018 ft | 408 kts | 329° |
| 2026-04-20 15:09 | 45.03764 | 17.25570 | 35017 ft | 408 kts | 329° |
| 2026-04-20 15:09 | 45.08835 | 17.21952 | 35022 ft | 408 kts | 328° |
| 2026-04-20 15:10 | 45.13907 | 17.18326 | 35013 ft | 408 kts | 328° |
| 2026-04-20 15:10 | 45.18932 | 17.14728 | 35024 ft | 407 kts | 328° |
| 2026-04-20 15:11 | 45.23993 | 17.11096 | 35009 ft | 408 kts | 328° |
| 2026-04-20 15:11 | 45.29056 | 17.07456 | 35017 ft | 408 kts | 328° |
| 2026-04-20 15:12 | 45.34077 | 17.03838 | 35015 ft | 407 kts | 328° |
| 2026-04-20 15:12 | 45.39129 | 17.00188 | 35009 ft | 407 kts | 328° |
| 2026-04-20 15:13 | 45.44176 | 16.96537 | 35021 ft | 407 kts | 328° |
| 2026-04-20 15:13 | 45.49219 | 16.92882 | 35017 ft | 407 kts | 328° |
| 2026-04-20 15:14 | 45.54217 | 16.89253 | 35020 ft | 405 kts | 328° |
| 2026-04-20 15:14 | 45.59226 | 16.85608 | 35015 ft | 403 kts | 328° |
| 2026-04-20 15:15 | 45.64207 | 16.81973 | 35005 ft | 401 kts | 327° |
| 2026-04-20 15:15 | 45.69160 | 16.78355 | 35021 ft | 399 kts | 327° |
| 2026-04-20 15:16 | 45.74067 | 16.74762 | 35015 ft | 398 kts | 327° |
| 2026-04-20 15:16 | 45.78989 | 16.71147 | 35017 ft | 397 kts | 327° |
| 2026-04-20 15:17 | 45.83903 | 16.67536 | 35013 ft | 397 kts | 327° |
| 2026-04-20 15:17 | 45.88810 | 16.63921 | 35021 ft | 397 kts | 327° |
| 2026-04-20 15:18 | 45.93695 | 16.60315 | 35022 ft | 398 kts | 327° |
| 2026-04-20 15:18 | 45.98617 | 16.56675 | 35015 ft | 398 kts | 327° |
| 2026-04-20 15:19 | 46.03544 | 16.53023 | 35019 ft | 398 kts | 327° |
| 2026-04-20 15:19 | 46.08439 | 16.49388 | 35023 ft | 399 kts | 327° |
| 2026-04-20 15:20 | 46.13386 | 16.45706 | 34587 ft | 402 kts | 327° |
| 2026-04-20 15:20 | 46.15860 | 16.43865 | 34158 ft | 397 kts | 327° |
| 2026-04-20 15:20 | 46.18296 | 16.42051 | 33700 ft | 392 kts | 327° |
| 2026-04-20 15:20 | 46.20710 | 16.40249 | 33241 ft | 389 kts | 327° |
| 2026-04-20 15:21 | 46.23110 | 16.38455 | 32807 ft | 388 kts | 326° |
| 2026-04-20 15:21 | 46.25508 | 16.36658 | 32359 ft | 389 kts | 326° |
| 2026-04-20 15:21 | 46.27876 | 16.34882 | 31921 ft | 389 kts | 326° |
| 2026-04-20 15:21 | 46.30281 | 16.33078 | 31474 ft | 389 kts | 326° |
| 2026-04-20 15:22 | 46.32684 | 16.31277 | 31029 ft | 389 kts | 326° |
| 2026-04-20 15:22 | 46.35170 | 16.29673 | 30565 ft | 397 kts | 335° |
| 2026-04-20 15:22 | 46.37885 | 16.28759 | 30138 ft | 405 kts | 343° |
| 2026-04-20 15:22 | 46.40717 | 16.28354 | 29684 ft | 414 kts | 350° |
| 2026-04-20 15:23 | 46.43647 | 16.28672 | 29231 ft | 433 kts | 360° |
| 2026-04-20 15:23 | 46.46611 | 16.29384 | 28812 ft | 442 kts | 1° |
| 2026-04-20 15:23 | 46.49655 | 16.30147 | 28358 ft | 446 kts | 1° |
| 2026-04-20 15:23 | 46.52710 | 16.30923 | 27908 ft | 446 kts | 1° |
| 2026-04-20 15:24 | 46.55768 | 16.31698 | 27453 ft | 444 kts | 2° |
| 2026-04-20 15:24 | 46.58812 | 16.32462 | 27002 ft | 445 kts | 2° |
| 2026-04-20 15:24 | 46.61883 | 16.33218 | 26558 ft | 449 kts | 2° |
| 2026-04-20 15:24 | 46.64977 | 16.33975 | 26110 ft | 452 kts | 2° |
| 2026-04-20 15:25 | 46.68087 | 16.34734 | 25666 ft | 454 kts | 2° |
| 2026-04-20 15:25 | 46.71164 | 16.35484 | 25222 ft | 456 kts | 3° |
| 2026-04-20 15:25 | 46.74291 | 16.36249 | 24780 ft | 456 kts | 3° |
| 2026-04-20 15:25 | 46.77397 | 16.37012 | 24314 ft | 450 kts | 4° |
| 2026-04-20 15:26 | 46.80461 | 16.37768 | 23854 ft | 444 kts | 4° |
| 2026-04-20 15:26 | 46.83505 | 16.38517 | 23413 ft | 444 kts | 4° |
| 2026-04-20 15:26 | 46.86546 | 16.39263 | 22966 ft | 442 kts | 4° |
| 2026-04-20 15:26 | 46.89569 | 16.40006 | 22519 ft | 440 kts | 4° |
| 2026-04-20 15:27 | 46.92581 | 16.40747 | 22070 ft | 437 kts | 4° |
| 2026-04-20 15:27 | 46.95569 | 16.41482 | 21620 ft | 434 kts | 4° |
| 2026-04-20 15:27 | 46.98497 | 16.42205 | 21174 ft | 431 kts | 4° |
| 2026-04-20 15:27 | 47.01437 | 16.42932 | 20726 ft | 427 kts | 4° |
| 2026-04-20 15:28 | 47.04357 | 16.43656 | 20275 ft | 424 kts | 4° |
| 2026-04-20 15:28 | 47.07252 | 16.44374 | 19825 ft | 420 kts | 4° |
| 2026-04-20 15:28 | 47.10123 | 16.45086 | 19374 ft | 417 kts | 4° |
| 2026-04-20 15:28 | 47.12970 | 16.45791 | 18926 ft | 414 kts | 4° |
| 2026-04-20 15:29 | 47.15800 | 16.46490 | 18484 ft | 411 kts | 4° |
| 2026-04-20 15:29 | 47.18612 | 16.47187 | 18018 ft | 408 kts | 4° |
| 2026-04-20 15:29 | 47.21365 | 16.47872 | 17583 ft | 406 kts | 4° |
| 2026-04-20 15:29 | 47.24138 | 16.48564 | 17137 ft | 403 kts | 4° |
| 2026-04-20 15:30 | 47.26895 | 16.49252 | 16684 ft | 401 kts | 4° |
| 2026-04-20 15:30 | 47.29632 | 16.49934 | 16237 ft | 398 kts | 4° |
| 2026-04-20 15:30 | 47.32344 | 16.50612 | 15781 ft | 392 kts | 4° |
| 2026-04-20 15:30 | 47.35011 | 16.51281 | 15340 ft | 386 kts | 4° |
| 2026-04-20 15:31 | 47.37635 | 16.51941 | 14874 ft | 380 kts | 5° |
| 2026-04-20 15:31 | 47.40204 | 16.52586 | 14435 ft | 375 kts | 5° |
| 2026-04-20 15:31 | 47.42757 | 16.53230 | 14056 ft | 368 kts | 5° |
| 2026-04-20 15:31 | 47.45225 | 16.53851 | 13692 ft | 362 kts | 5° |
| 2026-04-20 15:32 | 47.47690 | 16.54471 | 13315 ft | 357 kts | 5° |
| 2026-04-20 15:32 | 47.50118 | 16.55081 | 12939 ft | 352 kts | 5° |
| 2026-04-20 15:32 | 47.52516 | 16.55684 | 12558 ft | 348 kts | 5° |
| 2026-04-20 15:32 | 47.54887 | 16.56279 | 12189 ft | 344 kts | 5° |
| 2026-04-20 15:33 | 47.57235 | 16.56869 | 11810 ft | 341 kts | 5° |
| 2026-04-20 15:33 | 47.59561 | 16.57455 | 11437 ft | 337 kts | 5° |
| 2026-04-20 15:33 | 47.61837 | 16.58028 | 11067 ft | 335 kts | 5° |
| 2026-04-20 15:33 | 47.64124 | 16.58608 | 10699 ft | 332 kts | 5° |
| 2026-04-20 15:34 | 47.66393 | 16.59183 | 10321 ft | 329 kts | 6° |
| 2026-04-20 15:34 | 47.68611 | 16.59747 | 9924 ft | 319 kts | 6° |
| 2026-04-20 15:34 | 47.70760 | 16.60294 | 9544 ft | 309 kts | 6° |
| 2026-04-20 15:34 | 47.72849 | 16.60825 | 9168 ft | 300 kts | 6° |
| 2026-04-20 15:35 | 47.74838 | 16.61612 | 8766 ft | 297 kts | 24° |
| 2026-04-20 15:35 | 47.76492 | 16.63426 | 8405 ft | 294 kts | 36° |
| 2026-04-20 15:35 | 47.78183 | 16.65035 | 8024 ft | 286 kts | 29° |
| 2026-04-20 15:35 | 47.79583 | 16.67058 | 7640 ft | 287 kts | 53° |
| 2026-04-20 15:36 | 47.80568 | 16.69610 | 7279 ft | 282 kts | 59° |
| 2026-04-20 15:36 | 47.81468 | 16.72185 | 6900 ft | 279 kts | 60° |
| 2026-04-20 15:36 | 47.82353 | 16.74755 | 6553 ft | 278 kts | 58° |
| 2026-04-20 15:36 | 47.83516 | 16.76946 | 6277 ft | 263 kts | 35° |
| 2026-04-20 15:37 | 47.85098 | 16.78071 | 6002 ft | 246 kts | 6° |
| 2026-04-20 15:37 | 47.86732 | 16.77861 | 5742 ft | 231 kts | 336° |
| 2026-04-20 15:37 | 47.87959 | 16.76469 | 5509 ft | 219 kts | 307° |
| 2026-04-20 15:37 | 47.88766 | 16.74632 | 5268 ft | 212 kts | 302° |
| 2026-04-20 15:38 | 47.89520 | 16.72755 | 5009 ft | 210 kts | 301° |
| 2026-04-20 15:38 | 47.90265 | 16.70882 | 4768 ft | 211 kts | 301° |
| 2026-04-20 15:38 | 47.91011 | 16.68992 | 4484 ft | 213 kts | 301° |
| 2026-04-20 15:38 | 47.91851 | 16.67157 | 4054 ft | 217 kts | 319° |
| 2026-04-20 15:39 | 47.93162 | 16.66160 | 3783 ft | 210 kts | 337° |
| 2026-04-20 15:39 | 47.94499 | 16.65347 | 3487 ft | 205 kts | 338° |
| 2026-04-20 15:39 | 47.95829 | 16.64676 | 3223 ft | 199 kts | 342° |
| 2026-04-20 15:39 | 47.97133 | 16.64109 | 2950 ft | 196 kts | 343° |
| 2026-04-20 15:40 | 47.98430 | 16.63560 | 2724 ft | 192 kts | 343° |
| 2026-04-20 15:40 | 47.99708 | 16.63018 | 2453 ft | 189 kts | 343° |
| 2026-04-20 15:40 | 48.00953 | 16.62491 | 2198 ft | 183 kts | 343° |
| 2026-04-20 15:40 | 48.02162 | 16.61977 | 1956 ft | 178 kts | 343° |
| 2026-04-20 15:41 | 48.03322 | 16.61485 | 1720 ft | 168 kts | 344° |
| 2026-04-20 15:41 | 48.04401 | 16.61027 | 1508 ft | 158 kts | 344° |
| 2026-04-20 15:41 | 48.05424 | 16.60593 | 1338 ft | 153 kts | 344° |
| 2026-04-20 15:41 | 48.06446 | 16.60160 | 1123 ft | 149 kts | 344° |
| 2026-04-20 15:42 | 48.07413 | 16.59749 | 927 ft | 143 kts | 344° |
| 2026-04-20 15:42 | 48.08377 | 16.59340 | 735 ft | 144 kts | 344° |
| 2026-04-20 15:42 | 48.09322 | 16.58935 | 614 ft | 137 kts | 343° |
| 2026-04-20 15:42 | 48.10141 | 16.58592 | 599 ft | 96 kts | 344° |
| 2026-04-20 15:43 | 48.10568 | 16.58414 | 597 ft | 36 kts | 344° |
| 2026-04-20 15:43 | 48.10742 | 16.58286 | 602 ft | 27 kts | 308° |
| 2026-04-20 15:43 | 48.10860 | 16.58087 | 603 ft | 25 kts | 313° |
| 2026-04-20 15:43 | 48.10975 | 16.57904 | 604 ft | 23 kts | 315° |
| 2026-04-20 15:44 | 48.11102 | 16.57768 | 604 ft | 22 kts | 340° |
| 2026-04-20 15:44 | 48.11192 | 16.57606 | 605 ft | 15 kts | 294° |
| 2026-04-20 15:44 | 48.11237 | 16.57464 | 605 ft | 15 kts | 295° |
| 2026-04-20 15:44 | 48.11291 | 16.57341 | 606 ft | 14 kts | 338° |
| 2026-04-20 15:45 | 48.11380 | 16.57381 | 607 ft | 14 kts | 13° |
| 2026-04-20 15:45 | 48.11451 | 16.57313 | 606 ft | 13 kts | 295° |
| 2026-04-20 15:45 | 48.11489 | 16.57191 | 605 ft | 13 kts | 296° |
| 2026-04-20 15:45 | 48.11530 | 16.57070 | 602 ft | 14 kts | 297° |
| 2026-04-20 15:46 | 48.11573 | 16.56939 | 601 ft | 14 kts | 296° |
| 2026-04-20 15:46 | 48.11613 | 16.56813 | 600 ft | 13 kts | 295° |
| 2026-04-20 15:46 | 48.11678 | 16.56769 | 598 ft | 12 kts | 26° |
| 2026-04-20 15:46 | 48.11716 | 16.56807 | 598 ft | 4 kts | 33° |
| 2026-04-20 15:47 | 48.11721 | 16.56812 | 598 ft | 0 kts | 33° |